Time;durP1;ratioP1;P1;durP2;ratioP2;P2;SDS_P1;SDS_P2;PMS_P1;PMS_P2;Temp;Humidity;BMP_temperature;BMP_pressure;BME280_temperature;BME280_humidity;BME280_pressure;Samples;Min_cycle;Max_cycle;Signal;HPM_P1;HPM_P2
2023/05/18 00:00:20;;;;;;;;;;;;;;;;;;5046387;28;19931;-64
2023/05/18 00:02:47;;;;;;;;;;;;;;;;;;5052633;28;19921;-64
2023/05/18 00:05:13;;;;;;;;;;;;;;;;;;5052173;28;19929;-65
2023/05/18 00:07:39;;;;;;;;;;;;;;;;;;5049594;28;19929;-64
2023/05/18 00:10:06;;;;;;;;;;;;;;;;;;5051136;28;20436;-65
2023/05/18 00:12:31;;;;;;;;;;;;;;;;;;5049882;28;20405;-64
2023/05/18 00:14:57;;;;;;;;;;;;;;;;;;5047347;28;19927;-65
2023/05/18 00:17:23;;;;;;;;;;;;;;;;;;5046653;28;19932;-66
2023/05/18 00:19:49;;;;;;;;;;;;;;;;;;5048731;28;20420;-65
2023/05/18 00:22:17;;;;;;;;;;;;;;;;;;5049895;28;19925;-64
2023/05/18 00:24:43;;;;;;;;;;;;;;;;;;5049071;28;19920;-65
2023/05/18 00:27:09;;;;;;;;;;;;;;;;;;5049949;28;19928;-65
2023/05/18 00:29:35;;;;;;;;;;;;;;;;;;5032684;28;19924;-64
2023/05/18 00:32:01;;;;;;;;;;;;;;;;;;5050522;28;20027;-64
2023/05/18 00:34:27;;;;;;;;;;;;;;;;;;5049295;28;19927;-65
2023/05/18 00:36:53;;;;;;;;;;;;;;;;;;5051878;28;19925;-64
2023/05/18 00:39:19;;;;;;;;;;;;;;;;;;5049592;28;19931;-65
2023/05/18 00:41:45;;;;;;;;;;;;;;;;;;5052035;28;20330;-64
2023/05/18 00:44:11;;;;;;;;;;;;;;;;;;5041100;28;19925;-65
2023/05/18 00:46:37;;;;;;;;;;;;;;;;;;5043912;28;20416;-64
2023/05/18 00:49:03;;;;;;;;;;;;;;;;;;5050008;28;19973;-64
2023/05/18 00:51:29;;;;;;;;;;;;;;;;;;5052684;28;19931;-65
2023/05/18 00:53:54;;;;;;;;;;;;;;;;;;5049982;28;19921;-64
2023/05/18 00:56:22;;;;;;;;;;;;;;;;;;5050193;28;19921;-65
2023/05/18 00:58:48;;;;;;;;;;;;;;;;;;5050533;28;20408;-65
2023/05/18 01:01:16;;;;;;;;;;;;;;;;;;5048045;28;19920;-64
2023/05/18 01:03:42;;;;;;;;;;;;;;;;;;5050868;28;20366;-64
2023/05/18 01:06:09;;;;;;;;;;;;;;;;;;5050701;28;19931;-64
2023/05/18 01:08:35;;;;;;;;;;;;;;;;;;5034025;28;19921;-65
2023/05/18 01:11:00;;;;;;;;;;;;;;;;;;5050605;28;20197;-64
2023/05/18 01:13:26;;;;;;;;;;;;;;;;;;5050988;28;19925;-65
2023/05/18 01:15:52;;;;;;;;;;;;;;;;;;5047882;28;20401;-65
2023/05/18 01:18:20;;;;;;;;;;;;;;;;;;5050662;28;19920;-65
2023/05/18 01:20:46;;;;;;;;;;;;;;;;;;5050705;28;20011;-65
2023/05/18 01:23:12;;;;;;;;;;;;;;;;;;5050841;28;20008;-65
2023/05/18 01:25:39;;;;;;;;;;;;;;;;;;5049152;28;19968;-64
2023/05/18 01:28:05;;;;;;;;;;;;;;;;;;5048781;28;20412;-64
2023/05/18 01:30:31;;;;;;;;;;;;;;;;;;5048737;28;19933;-65
2023/05/18 01:32:57;;;;;;;;;;;;;;;;;;5046506;28;20386;-66
2023/05/18 01:35:23;;;;;;;;;;;;;;;;;;5030968;28;19979;-65
2023/05/18 01:37:49;;;;;;;;;;;;;;;;;;5049580;28;20465;-65
2023/05/18 01:40:15;;;;;;;;;;;;;;;;;;5049954;28;20011;-66
2023/05/18 01:42:41;;;;;;;;;;;;;;;;;;5048673;28;19951;-65
2023/05/18 01:45:06;;;;;;;;;;;;;;;;;;5045278;28;19932;-65
2023/05/18 01:47:32;;;;;;;;;;;;;;;;;;5051764;28;20273;-65
2023/05/18 01:49:58;;;;;;;;;;;;;;;;;;5064910;28;20015;-65
2023/05/18 01:52:24;;;;;;;;;;;;;;;;;;5047325;28;19929;-65
2023/05/18 01:54:50;;;;;;;;;;;;;;;;;;5050878;28;19920;-64
2023/05/18 01:57:16;;;;;;;;;;;;;;;;;;5049761;28;19927;-65
2023/05/18 01:59:42;;;;;;;;;;;;;;;;;;5050358;28;19932;-64
2023/05/18 02:02:08;;;;;;;;;;;;;;;;;;5047800;28;20046;-65
2023/05/18 02:04:34;;;;;;;;;;;;;;;;;;5050731;28;20569;-65
2023/05/18 02:07:00;;;;;;;;;;;;;;;;;;5048670;28;19921;-64
2023/05/18 02:09:26;;;;;;;;;;;;;;;;;;5049606;28;20306;-64
2023/05/18 02:11:52;;;;;;;;;;;;;;;;;;5048870;28;19924;-65
2023/05/18 02:14:17;;;;;;;;;;;;;;;;;;5048954;28;19921;-64
2023/05/18 02:16:51;;;;;;;;;;;;;;;;;;5044843;28;20524;-65
2023/05/18 02:19:17;;;;;;;;;;;;;;;;;;5048950;28;20442;-65
2023/05/18 02:21:43;;;;;;;;;;;;;;;;;;5044500;28;20018;-65
2023/05/18 02:24:09;;;;;;;;;;;;;;;;;;5055057;28;20065;-65
2023/05/18 02:26:36;;;;;;;;;;;;;;;;;;5051295;28;20003;-65
2023/05/18 02:29:02;;;;;;;;;;;;;;;;;;5054410;28;19929;-65
2023/05/18 02:31:29;;;;;;;;;;;;;;;;;;5048310;28;20330;-64
2023/05/18 02:33:55;;;;;;;;;;;;;;;;;;5051966;28;19924;-65
2023/05/18 02:36:22;;;;;;;;;;;;;;;;;;5050309;28;19929;-65
2023/05/18 02:38:48;;;;;;;;;;;;;;;;;;5052651;28;19928;-64
2023/05/18 02:41:14;;;;;;;;;;;;;;;;;;5057074;28;19936;-64
2023/05/18 02:43:40;;;;;;;;;;;;;;;;;;5054772;28;19921;-65
2023/05/18 02:46:06;;;;;;;;;;;;;;;;;;5057077;28;20282;-64
2023/05/18 02:48:32;;;;;;;;;;;;;;;;;;5059068;28;19932;-64
2023/05/18 02:50:58;;;;;;;;;;;;;;;;;;5057188;28;19925;-64
2023/05/18 02:53:25;;;;;;;;;;;;;;;;;;5056523;28;19952;-64
2023/05/18 02:55:52;;;;;;;;;;;;;;;;;;5062227;28;19929;-64
2023/05/18 02:58:21;;;;;;;;;;;;;;;;;;5062265;28;19942;-65
2023/05/18 03:00:47;;;;;;;;;;;;;;;;;;5061692;28;20356;-64
2023/05/18 03:03:14;;;;;;;;;;;;;;;;;;5050637;28;19933;-66
2023/05/18 03:05:41;;;;;;;;;;;;;;;;;;5051785;28;20001;-64
2023/05/18 03:08:09;;;;;;;;;;;;;;;;;;5052363;28;19921;-64
2023/05/18 03:10:35;;;;;;;;;;;;;;;;;;5053633;28;19925;-64
2023/05/18 03:13:01;;;;;;;;;;;;;;;;;;5053588;28;20054;-65
2023/05/18 03:15:30;;;;;;;;;;;;;;;;;;5049811;28;19924;-64
2023/05/18 03:17:58;;;;;;;;;;;;;;;;;;5053451;28;19946;-64
2023/05/18 03:20:24;;;;;;;;;;;;;;;;;;5051965;28;19925;-64
2023/05/18 03:22:50;;;;;;;;;;;;;;;;;;5053070;28;19925;-64
2023/05/18 03:25:16;;;;;;;;;;;;;;;;;;5053767;28;19920;-65
2023/05/18 03:27:42;;;;;;;;;;;;;;;;;;5056028;28;19920;-64
2023/05/18 03:30:08;;;;;;;;;;;;;;;;;;5051811;28;19935;-64
2023/05/18 03:32:35;;;;;;;;;;;;;;;;;;5052751;28;19939;-65
2023/05/18 03:35:01;;;;;;;;;;;;;;;;;;5055868;28;20008;-65
2023/05/18 03:37:27;;;;;;;;;;;;;;;;;;5051186;28;20008;-65
2023/05/18 03:39:54;;;;;;;;;;;;;;;;;;5050774;28;20287;-65
2023/05/18 03:42:20;;;;;;;;;;;;;;;;;;5033720;28;19920;-65
2023/05/18 03:44:46;;;;;;;;;;;;;;;;;;5053045;28;19935;-65
2023/05/18 03:47:13;;;;;;;;;;;;;;;;;;5052549;28;19920;-65
2023/05/18 03:49:38;;;;;;;;;;;;;;;;;;5050219;28;20301;-65
2023/05/18 03:52:04;;;;;;;;;;;;;;;;;;5047925;28;19929;-64
2023/05/18 03:54:31;;;;;;;;;;;;;;;;;;5051676;28;19935;-65
2023/05/18 03:56:57;;;;;;;;;;;;;;;;;;5055419;28;19921;-65
2023/05/18 03:59:23;;;;;;;;;;;;;;;;;;5068714;28;19931;-64
2023/05/18 04:01:52;;;;;;;;;;;;;;;;;;5059322;28;20740;-66
2023/05/18 04:04:22;;;;;;;;;;;;;;;;;;5046313;28;19925;-65
2023/05/18 04:06:48;;;;;;;;;;;;;;;;;;5060624;28;20294;-64
2023/05/18 04:09:16;;;;;;;;;;;;;;;;;;5049985;28;20482;-65
2023/05/18 04:11:41;;;;;;;;;;;;;;;;;;5051334;28;20294;-64
2023/05/18 04:14:07;;;;;;;;;;;;;;;;;;5052269;28;19931;-64
2023/05/18 04:16:33;;;;;;;;;;;;;;;;;;5048159;28;20015;-65
2023/05/18 04:19:00;;;;;;;;;;;;;;;;;;5042875;28;20015;-65
2023/05/18 04:21:26;;;;;;;;;;;;;;;;;;5050556;28;20310;-65
2023/05/18 04:23:52;;;;;;;;;;;;;;;;;;5057866;28;19977;-65
2023/05/18 04:26:18;;;;;;;;;;;;;;;;;;5052823;28;19921;-65
2023/05/18 04:28:46;;;;;;;;;;;;;;;;;;5056144;28;21820;-65
2023/05/18 04:31:13;;;;;;;;;;;;;;;;;;5058210;28;19924;-65
2023/05/18 04:33:40;;;;;;;;;;;;;;;;;;5050778;28;19962;-64
2023/05/18 04:36:06;;;;;;;;;;;;;;;;;;5048176;28;20019;-64
2023/05/18 04:38:33;;;;;;;;;;;;;;;;;;5043819;28;20019;-65
2023/05/18 04:40:59;;;;;;;;;;;;;;;;;;5048998;28;19967;-64
2023/05/18 04:43:27;;;;;;;;;;;;;;;;;;5043055;28;20366;-65
2023/05/18 04:45:53;;;;;;;;;;;;;;;;;;5051707;28;19924;-64
2023/05/18 04:48:19;;;;;;;;;;;;;;;;;;5051239;28;19971;-65
2023/05/18 04:50:45;;;;;;;;;;;;;;;;;;5049093;28;19921;-65
2023/05/18 04:53:12;;;;;;;;;;;;;;;;;;5052353;28;20400;-64
2023/05/18 04:55:38;;;;;;;;;;;;;;;;;;5052650;28;19927;-64
2023/05/18 04:58:04;;;;;;;;;;;;;;;;;;5051218;28;19925;-65
2023/05/18 05:00:30;;;;;;;;;;;;;;;;;;5052528;28;19921;-65
2023/05/18 05:02:56;;;;;;;;;;;;;;;;;;5050234;28;20247;-65
2023/05/18 05:05:22;;;;;;;;;;;;;;;;;;5050028;28;19921;-65
2023/05/18 05:07:48;;;;;;;;;;;;;;;;;;5051162;28;19931;-64
2023/05/18 05:10:14;;;;;;;;;;;;;;;;;;5052087;28;19942;-65
2023/05/18 05:12:40;;;;;;;;;;;;;;;;;;5051256;28;19925;-65
2023/05/18 05:15:06;;;;;;;;;;;;;;;;;;5050852;28;20676;-64
2023/05/18 05:17:32;;;;;;;;;;;;;;;;;;5052121;28;19926;-63
2023/05/18 05:19:58;;;;;;;;;;;;;;;;;;5050799;28;20290;-64
2023/05/18 05:22:24;;;;;;;;;;;;;;;;;;5050594;28;19967;-64
2023/05/18 05:24:49;;;;;;;;;;;;;;;;;;5049378;28;20396;-64
2023/05/18 05:27:15;;;;;;;;;;;;;;;;;;5049172;28;19925;-64
2023/05/18 05:29:41;;;;;;;;;;;;;;;;;;5050156;28;20011;-64
2023/05/18 05:32:07;;;;;;;;;;;;;;;;;;5051993;28;19931;-64
2023/05/18 05:34:33;;;;;;;;;;;;;;;;;;5051453;28;20343;-64
2023/05/18 05:36:59;;;;;;;;;;;;;;;;;;5054929;28;19966;-66
2023/05/18 05:39:25;;;;;;;;;;;;;;;;;;5051115;28;19944;-65
2023/05/18 05:41:51;;;;;;;;;;;;;;;;;;5046549;28;20375;-64
2023/05/18 05:44:17;;;;;;;;;;;;;;;;;;5051562;28;19929;-65
2023/05/18 05:46:43;;;;;;;;;;;;;;;;;;5050465;28;19925;-65
2023/05/18 05:49:09;;;;;;;;;;;;;;;;;;5050682;28;20354;-65
2023/05/18 05:51:35;;;;;;;;;;;;;;;;;;5046949;28;20015;-65
2023/05/18 05:54:01;;;;;;;;;;;;;;;;;;5051375;28;20349;-64
2023/05/18 05:56:26;;;;;;;;;;;;;;;;;;5050209;28;19924;-65
2023/05/18 05:58:52;;;;;;;;;;;;;;;;;;5051920;28;19928;-65
2023/05/18 06:01:18;;;;;;;;;;;;;;;;;;5049143;28;19951;-65
2023/05/18 06:03:44;;;;;;;;;;;;;;;;;;5052538;28;20301;-65
2023/05/18 06:06:10;;;;;;;;;;;;;;;;;;5050064;28;19974;-64
2023/05/18 06:08:36;;;;;;;;;;;;;;;;;;5050248;28;19995;-64
2023/05/18 06:11:02;;;;;;;;;;;;;;;;;;5049774;28;19966;-65
2023/05/18 06:13:28;;;;;;;;;;;;;;;;;;5049094;28;19928;-65
2023/05/18 06:15:54;;;;;;;;;;;;;;;;;;5048291;28;19944;-65
2023/05/18 06:18:20;;;;;;;;;;;;;;;;;;5049692;28;19960;-64
2023/05/18 06:20:46;;;;;;;;;;;;;;;;;;5047200;28;19920;-64
2023/05/18 06:23:12;;;;;;;;;;;;;;;;;;5048172;28;19925;-66
2023/05/18 06:25:38;;;;;;;;;;;;;;;;;;5039202;28;20381;-65
2023/05/18 06:28:04;;;;;;;;;;;;;;;;;;5046316;28;19921;-64
2023/05/18 06:30:30;;;;;;;;;;;;;;;;;;5050879;28;19925;-65
2023/05/18 06:32:55;;;;;;;;;;;;;;;;;;5047846;28;19929;-64
2023/05/18 06:35:22;;;;;;;;;;;;;;;;;;5050635;28;19935;-65
2023/05/18 06:37:48;;;;;;;;;;;;;;;;;;5049491;28;20019;-65
2023/05/18 06:40:14;;;;;;;;;;;;;;;;;;5045605;28;19964;-65
2023/05/18 06:42:40;;;;;;;;;;;;;;;;;;5048949;28;19936;-64
2023/05/18 06:45:06;;;;;;;;;;;;;;;;;;5049245;28;20244;-65
2023/05/18 06:47:32;;;;;;;;;;;;;;;;;;5049407;28;19951;-64
2023/05/18 06:49:58;;;;;;;;;;;;;;;;;;5048978;28;20012;-65
2023/05/18 06:52:24;;;;;;;;;;;;;;;;;;5050490;28;19932;-65
2023/05/18 06:54:50;;;;;;;;;;;;;;;;;;5051259;28;19921;-65
2023/05/18 06:57:16;;;;;;;;;;;;;;;;;;5046631;28;20382;-65
2023/05/18 06:59:42;;;;;;;;;;;;;;;;;;5050762;28;19929;-64
2023/05/18 07:02:08;;;;;;;;;;;;;;;;;;5049445;28;19921;-64
2023/05/18 07:04:33;;;;;;;;;;;;;;;;;;5048174;28;19931;-64
2023/05/18 07:07:00;;;;;;;;;;;;;;;;;;5046548;28;19925;-64
2023/05/18 07:09:26;;;;;;;;;;;;;;;;;;5051206;28;19920;-65
2023/05/18 07:11:52;;;;;;;;;;;;;;;;;;5048028;28;20474;-64
2023/05/18 07:14:17;;;;;;;;;;;;;;;;;;5049013;28;19963;-65
2023/05/18 07:16:46;;;;;;;;;;;;;;;;;;5049861;28;19925;-65
2023/05/18 07:19:12;;;;;;;;;;;;;;;;;;5054246;28;19936;-65
2023/05/18 07:21:37;;;;;;;;;;;;;;;;;;5048440;28;19921;-64
2023/05/18 07:24:03;;;;;;;;;;;;;;;;;;5060226;28;19921;-65
2023/05/18 07:26:30;;;;;;;;;;;;;;;;;;5054566;28;20016;-65
2023/05/18 07:28:56;;;;;;;;;;;;;;;;;;5054355;28;19921;-64
2023/05/18 07:31:22;;;;;;;;;;;;;;;;;;5054283;28;20360;-65
2023/05/18 07:33:48;;;;;;;;;;;;;;;;;;5054018;28;19921;-65
2023/05/18 07:36:14;;;;;;;;;;;;;;;;;;5059979;28;19989;-65
2023/05/18 07:38:40;;;;;;;;;;;;;;;;;;5056755;28;19920;-61
2023/05/18 07:41:06;;;;;;;;;;;;;;;;;;5053549;28;19928;-61
2023/05/18 07:43:32;;;;;;;;;;;;;;;;;;5053345;28;20289;-61
2023/05/18 07:45:58;;;;;;;;;;;;;;;;;;5054464;28;19920;-61
2023/05/18 07:48:23;;;;;;;;;;;;;;;;;;5066427;28;19921;-61
2023/05/18 07:50:50;;;;;;;;;;;;;;;;;;5055113;28;20008;-61
2023/05/18 07:53:16;;;;;;;;;;;;;;;;;;5053601;28;20389;-61
2023/05/18 07:55:42;;;;;;;;;;;;;;;;;;5045936;28;19927;-61
2023/05/18 07:58:08;;;;;;;;;;;;;;;;;;5053473;28;19920;-61
2023/05/18 08:00:34;;;;;;;;;;;;;;;;;;5052606;28;19925;-60
2023/05/18 08:03:00;;;;;;;;;;;;;;;;;;5052536;28;19932;-61
2023/05/18 08:05:26;;;;;;;;;;;;;;;;;;5044487;28;19927;-60
2023/05/18 08:07:52;;;;;;;;;;;;;;;;;;5044873;28;19935;-61
2023/05/18 08:10:17;;;;;;;;;;;;;;;;;;5050258;28;20373;-61
2023/05/18 08:12:43;;;;;;;;;;;;;;;;;;5051346;28;19982;-61
2023/05/18 08:15:09;;;;;;;;;;;;;;;;;;5046360;28;19998;-61
2023/05/18 08:17:35;;;;;;;;;;;;;;;;;;5038749;28;19920;-61
2023/05/18 08:20:03;;;;;;;;;;;;;;;;;;5047764;28;19929;-60
2023/05/18 08:22:29;;;;;;;;;;;;;;;;;;5049483;28;19920;-61
2023/05/18 08:24:56;;;;;;;;;;;;;;;;;;5051556;28;20401;-62
2023/05/18 08:27:22;;;;;;;;;;;;;;;;;;5049448;28;20370;-61
2023/05/18 08:29:48;;;;;;;;;;;;;;;;;;5050543;28;19931;-61
2023/05/18 08:32:14;;;;;;;;;;;;;;;;;;5062547;28;20428;-61
2023/05/18 08:34:40;;;;;;;;;;;;;;;;;;5046956;28;19927;-61
2023/05/18 08:37:06;;;;;;;;;;;;;;;;;;5047860;28;20568;-61
2023/05/18 08:39:32;;;;;;;;;;;;;;;;;;5051552;28;19925;-61
2023/05/18 08:41:58;;;;;;;;;;;;;;;;;;5041971;28;19921;-61
2023/05/18 08:44:24;;;;;;;;;;;;;;;;;;5053062;28;20369;-61
2023/05/18 08:46:50;;;;;;;;;;;;;;;;;;5052860;28;19929;-61
2023/05/18 08:49:16;;;;;;;;;;;;;;;;;;5048917;28;19925;-60
2023/05/18 08:51:42;;;;;;;;;;;;;;;;;;5089903;22;19924;-60
2023/05/18 08:54:08;;;;;;;;;;;;;;;;;;5048731;28;19928;-60
2023/05/18 08:56:34;;;;;;;;;;;;;;;;;;5074803;28;19985;-61
2023/05/18 08:59:00;;;;;;;;;;;;;;;;;;5064426;28;19943;-60
2023/05/18 09:01:28;;;;;;;;;;;;;;;;;;5070461;28;19920;-60
2023/05/18 09:03:54;;;;;;;;;;;;;;;;;;5065261;28;19928;-60
2023/05/18 09:06:23;;;;;;;;;;;;;;;;;;5075296;28;19924;-62
2023/05/18 09:08:49;;;;;;;;;;;;;;;;;;5069049;28;19935;-59
2023/05/18 09:11:15;;;;;;;;;;;;;;;;;;5068944;28;19928;-61
2023/05/18 09:13:41;;;;;;;;;;;;;;;;;;5079135;28;19920;-60
2023/05/18 09:16:08;;;;;;;;;;;;;;;;;;5069311;28;21366;-61
2023/05/18 09:18:34;;;;;;;;;;;;;;;;;;5067690;28;19928;-60
2023/05/18 09:21:00;;;;;;;;;;;;;;;;;;5065449;28;20316;-62
2023/05/18 09:23:26;;;;;;;;;;;;;;;;;;5061336;28;19951;-60
2023/05/18 09:25:52;;;;;;;;;;;;;;;;;;5074154;28;19960;-60
2023/05/18 09:28:18;;;;;;;;;;;;;;;;;;5073276;28;20015;-60
2023/05/18 09:30:44;;;;;;;;;;;;;;;;;;5050816;28;19935;-61
2023/05/18 09:33:10;;;;;;;;;;;;;;;;;;5072145;28;19928;-61
2023/05/18 09:35:36;;;;;;;;;;;;;;;;;;5065094;28;20286;-60
2023/05/18 09:38:02;;;;;;;;;;;;;;;;;;5055629;28;19920;-60
2023/05/18 09:40:28;;;;;;;;;;;;;;;;;;5065281;28;19932;-61
2023/05/18 09:42:54;;;;;;;;;;;;;;;;;;5051133;28;19985;-61
2023/05/18 09:45:22;;;;;;;;;;;;;;;;;;5067183;28;19974;-61
2023/05/18 09:47:48;;;;;;;;;;;;;;;;;;5069142;28;19920;-61
2023/05/18 09:50:14;;;;;;;;;;;;;;;;;;5059626;28;19935;-61
2023/05/18 09:52:40;;;;;;;;;;;;;;;;;;5072127;28;19928;-61
2023/05/18 09:55:06;;;;;;;;;;;;;;;;;;5069788;28;20444;-61
2023/05/18 09:57:32;;;;;;;;;;;;;;;;;;5070497;28;20043;-61
2023/05/18 09:59:58;;;;;;;;;;;;;;;;;;5072529;28;19923;-61
2023/05/18 10:02:24;;;;;;;;;;;;;;;;;;5067968;28;20420;-61
2023/05/18 10:04:50;;;;;;;;;;;;;;;;;;5072411;28;19921;-61
2023/05/18 10:07:16;;;;;;;;;;;;;;;;;;5070210;28;19927;-60
2023/05/18 10:09:42;;;;;;;;;;;;;;;;;;5066085;28;20008;-60
2023/05/18 10:12:08;;;;;;;;;;;;;;;;;;5066328;28;19932;-61
2023/05/18 10:14:35;;;;;;;;;;;;;;;;;;5063050;28;19981;-62
2023/05/18 10:17:01;;;;;;;;;;;;;;;;;;5068400;28;20374;-62
2023/05/18 10:19:27;;;;;;;;;;;;;;;;;;5069906;28;19971;-62
2023/05/18 10:21:53;;;;;;;;;;;;;;;;;;5066922;28;19935;-62
2023/05/18 10:24:18;;;;;;;;;;;;;;;;;;5046061;28;20312;-62
2023/05/18 10:26:44;;;;;;;;;;;;;;;;;;5067012;28;19962;-62
2023/05/18 10:29:10;;;;;;;;;;;;;;;;;;5060228;28;19928;-61
2023/05/18 10:31:36;;;;;;;;;;;;;;;;;;5048378;28;20417;-62
2023/05/18 10:34:02;;;;;;;;;;;;;;;;;;5065516;28;19928;-62
2023/05/18 10:36:28;;;;;;;;;;;;;;;;;;5067511;28;19963;-62
2023/05/18 10:38:54;;;;;;;;;;;;;;;;;;5064870;28;19927;-62
2023/05/18 10:41:21;;;;;;;;;;;;;;;;;;5065853;28;20683;-62
2023/05/18 10:43:47;;;;;;;;;;;;;;;;;;5065208;28;19947;-62
2023/05/18 10:46:14;;;;;;;;;;;;;;;;;;5067326;28;20367;-62
2023/05/18 10:48:40;;;;;;;;;;;;;;;;;;5067340;28;20289;-62
2023/05/18 10:51:06;;;;;;;;;;;;;;;;;;5083612;28;19925;-62
2023/05/18 10:53:32;;;;;;;;;;;;;;;;;;5074086;28;19933;-61
2023/05/18 10:55:58;;;;;;;;;;;;;;;;;;5078057;28;19921;-61
2023/05/18 10:58:24;;;;;;;;;;;;;;;;;;5084181;28;19920;-62
2023/05/18 11:00:50;;;;;;;;;;;;;;;;;;5073376;28;20273;-61
2023/05/18 11:03:16;;;;;;;;;;;;;;;;;;5069261;28;19925;-61
2023/05/18 11:05:42;;;;;;;;;;;;;;;;;;5071482;28;20143;-62
2023/05/18 11:08:08;;;;;;;;;;;;;;;;;;5075322;28;19942;-60
2023/05/18 11:10:34;;;;;;;;;;;;;;;;;;5073455;28;19924;-61
2023/05/18 11:13:01;;;;;;;;;;;;;;;;;;5071886;28;19968;-61
2023/05/18 11:15:26;;;;;;;;;;;;;;;;;;5074664;28;19920;-61
2023/05/18 11:17:52;;;;;;;;;;;;;;;;;;5070703;28;20011;-61
2023/05/18 11:20:18;;;;;;;;;;;;;;;;;;5074561;28;20346;-61
2023/05/18 11:22:44;;;;;;;;;;;;;;;;;;5071475;28;19926;-62
2023/05/18 11:25:10;;;;;;;;;;;;;;;;;;5072509;28;20003;-61
2023/05/18 11:27:37;;;;;;;;;;;;;;;;;;5071928;28;20464;-61
2023/05/18 11:30:02;;;;;;;;;;;;;;;;;;5068561;28;19932;-61
2023/05/18 11:32:31;;;;;;;;;;;;;;;;;;5069719;28;19924;-61
2023/05/18 11:34:57;;;;;;;;;;;;;;;;;;5064993;28;19925;-61
2023/05/18 11:37:23;;;;;;;;;;;;;;;;;;5068353;28;20008;-61
2023/05/18 11:39:49;;;;;;;;;;;;;;;;;;5066891;28;20007;-61
2023/05/18 11:42:16;;;;;;;;;;;;;;;;;;5049176;28;19928;-65
2023/05/18 11:44:42;;;;;;;;;;;;;;;;;;5070290;28;19963;-65
2023/05/18 11:47:08;;;;;;;;;;;;;;;;;;5068409;28;19924;-66
2023/05/18 11:49:34;;;;;;;;;;;;;;;;;;5086808;28;19920;-64
2023/05/18 11:52:00;;;;;;;;;;;;;;;;;;5060874;28;20385;-66
2023/05/18 11:54:26;;;;;;;;;;;;;;;;;;5065293;28;19925;-66
2023/05/18 11:56:52;;;;;;;;;;;;;;;;;;5069464;28;19928;-66
2023/05/18 11:59:18;;;;;;;;;;;;;;;;;;5063669;28;20425;-66
2023/05/18 12:01:44;;;;;;;;;;;;;;;;;;5067318;28;19971;-66
2023/05/18 12:04:10;;;;;;;;;;;;;;;;;;5067859;28;20023;-66
2023/05/18 12:06:36;;;;;;;;;;;;;;;;;;5068145;28;20648;-65
2023/05/18 12:09:02;;;;;;;;;;;;;;;;;;5073306;28;20411;-65
2023/05/18 12:11:28;;;;;;;;;;;;;;;;;;5070289;28;20027;-65
2023/05/18 12:13:54;;;;;;;;;;;;;;;;;;5069966;28;19921;-61
2023/05/18 12:16:20;;;;;;;;;;;;;;;;;;5066687;28;19920;-61
2023/05/18 12:18:46;;;;;;;;;;;;;;;;;;5050754;28;23422;-62
2023/05/18 12:21:12;;;;;;;;;;;;;;;;;;5092467;28;19924;-61
2023/05/18 12:23:38;;;;;;;;;;;;;;;;;;5092444;28;19920;-61
2023/05/18 12:26:04;;;;;;;;;;;;;;;;;;5070221;28;19920;-61
2023/05/18 12:28:30;;;;;;;;;;;;;;;;;;5065521;28;20731;-61
2023/05/18 12:30:56;;;;;;;;;;;;;;;;;;5071123;28;19924;-62
2023/05/18 12:33:22;;;;;;;;;;;;;;;;;;5071625;28;19924;-62
2023/05/18 12:35:47;;;;;;;;;;;;;;;;;;5078812;28;20381;-61
2023/05/18 12:38:14;;;;;;;;;;;;;;;;;;5067911;28;20020;-62
2023/05/18 12:40:45;;;;;;;;;;;;;;;;;;5065105;28;20073;-61
2023/05/18 12:43:11;;;;;;;;;;;;;;;;;;5070432;28;19970;-60
2023/05/18 12:45:37;;;;;;;;;;;;;;;;;;5069119;28;19924;-61
2023/05/18 12:48:03;;;;;;;;;;;;;;;;;;5071316;28;20258;-61
2023/05/18 12:50:29;;;;;;;;;;;;;;;;;;5076753;28;20026;-60
2023/05/18 12:52:55;;;;;;;;;;;;;;;;;;5084519;28;19924;-60
2023/05/18 12:55:21;;;;;;;;;;;;;;;;;;5071209;28;20036;-60
2023/05/18 12:57:47;;;;;;;;;;;;;;;;;;5085605;28;20069;-60
2023/05/18 13:00:13;;;;;;;;;;;;;;;;;;5086115;28;20015;-60
2023/05/18 13:02:40;;;;;;;;;;;;;;;;;;5083715;28;19923;-60
2023/05/18 13:05:08;;;;;;;;;;;;;;;;;;5092350;28;19970;-60
2023/05/18 13:07:34;;;;;;;;;;;;;;;;;;5077462;28;19924;-60
2023/05/18 13:10:00;;;;;;;;;;;;;;;;;;5072399;28;19927;-60
2023/05/18 13:12:26;;;;;;;;;;;;;;;;;;5068326;28;19924;-60
2023/05/18 13:14:52;;;;;;;;;;;;;;;;;;5072722;28;20365;-61
2023/05/18 13:17:18;;;;;;;;;;;;;;;;;;5072311;28;19931;-61
2023/05/18 13:19:44;;;;;;;;;;;;;;;;;;5072273;28;19920;-60
2023/05/18 13:22:10;;;;;;;;;;;;;;;;;;5070757;28;19921;-61
2023/05/18 13:24:36;;;;;;;;;;;;;;;;;;5063851;28;20440;-60
2023/05/18 13:27:01;;;;;;;;;;;;;;;;;;5060017;28;19930;-62
2023/05/18 13:29:27;;;;;;;;;;;;;;;;;;5069606;28;20319;-62
2023/05/18 13:31:53;;;;;;;;;;;;;;;;;;5077038;28;19924;-62
2023/05/18 13:34:19;;;;;;;;;;;;;;;;;;5066489;28;19931;-61
2023/05/18 13:36:45;;;;;;;;;;;;;;;;;;5073055;28;19920;-61
2023/05/18 13:39:12;;;;;;;;;;;;;;;;;;5071056;28;19927;-61
2023/05/18 13:41:38;;;;;;;;;;;;;;;;;;5071180;28;19928;-61
2023/05/18 13:44:03;;;;;;;;;;;;;;;;;;5067496;28;19925;-61
2023/05/18 13:46:30;;;;;;;;;;;;;;;;;;5073230;28;20414;-62
2023/05/18 13:48:56;;;;;;;;;;;;;;;;;;5055262;28;19966;-62
2023/05/18 13:51:22;;;;;;;;;;;;;;;;;;5072903;28;20420;-62
2023/05/18 13:53:47;;;;;;;;;;;;;;;;;;5072494;28;20345;-62
2023/05/18 13:56:13;;;;;;;;;;;;;;;;;;5072027;28;20372;-62
2023/05/18 13:58:40;;;;;;;;;;;;;;;;;;5068722;28;19982;-62
2023/05/18 14:01:08;;;;;;;;;;;;;;;;;;5053072;28;19996;-62
2023/05/18 14:03:35;;;;;;;;;;;;;;;;;;5070703;28;20349;-61
2023/05/18 14:06:01;;;;;;;;;;;;;;;;;;5075896;28;20003;-59
2023/05/18 14:08:27;;;;;;;;;;;;;;;;;;5070079;28;20358;-61
2023/05/18 14:10:52;;;;;;;;;;;;;;;;;;5070948;28;19924;-61
2023/05/18 14:13:18;;;;;;;;;;;;;;;;;;5069978;28;20270;-62
2023/05/18 14:15:44;;;;;;;;;;;;;;;;;;5072387;28;19963;-61
2023/05/18 14:18:11;;;;;;;;;;;;;;;;;;5057281;28;19964;-62
2023/05/18 14:20:37;;;;;;;;;;;;;;;;;;5060264;28;19921;-61
2023/05/18 14:23:03;;;;;;;;;;;;;;;;;;5067942;28;20328;-61
2023/05/18 14:25:29;;;;;;;;;;;;;;;;;;5074527;28;19969;-61
2023/05/18 14:27:55;;;;;;;;;;;;;;;;;;5071200;28;19967;-61
2023/05/18 14:30:21;;;;;;;;;;;;;;;;;;5074144;28;19924;-61
2023/05/18 14:32:47;;;;;;;;;;;;;;;;;;5049196;28;20326;-61
2023/05/18 14:35:13;;;;;;;;;;;;;;;;;;5075343;28;19931;-63
2023/05/18 14:37:39;;;;;;;;;;;;;;;;;;5074250;28;19920;-63
2023/05/18 14:40:05;;;;;;;;;;;;;;;;;;5074708;28;19928;-63
2023/05/18 14:42:31;;;;;;;;;;;;;;;;;;5069851;28;19986;-63
2023/05/18 14:44:56;;;;;;;;;;;;;;;;;;5065345;28;20368;-62
2023/05/18 14:47:22;;;;;;;;;;;;;;;;;;5072365;28;20430;-63
2023/05/18 14:49:48;;;;;;;;;;;;;;;;;;5069330;28;20017;-63
2023/05/18 14:52:14;;;;;;;;;;;;;;;;;;5074241;28;19924;-63
2023/05/18 14:54:41;;;;;;;;;;;;;;;;;;5069276;28;19930;-61
2023/05/18 14:57:07;;;;;;;;;;;;;;;;;;5069568;28;20676;-66
2023/05/18 14:59:32;;;;;;;;;;;;;;;;;;5072011;28;19928;-66
2023/05/18 15:01:58;;;;;;;;;;;;;;;;;;5069680;28;19924;-66
2023/05/18 15:04:24;;;;;;;;;;;;;;;;;;5070918;28;20365;-66
2023/05/18 15:06:51;;;;;;;;;;;;;;;;;;5070478;28;20011;-66
2023/05/18 15:09:16;;;;;;;;;;;;;;;;;;5072437;28;19928;-66
2023/05/18 15:11:43;;;;;;;;;;;;;;;;;;5067629;28;20722;-66
2023/05/18 15:14:09;;;;;;;;;;;;;;;;;;5072351;28;19920;-66
2023/05/18 15:16:34;;;;;;;;;;;;;;;;;;5068480;28;20239;-65
2023/05/18 15:19:00;;;;;;;;;;;;;;;;;;5074202;28;19925;-65
2023/05/18 15:21:26;;;;;;;;;;;;;;;;;;5068706;28;19920;-65
2023/05/18 15:23:52;;;;;;;;;;;;;;;;;;5069198;28;19924;-66
2023/05/18 15:26:18;;;;;;;;;;;;;;;;;;5068069;28;19931;-66
2023/05/18 15:28:46;;;;;;;;;;;;;;;;;;5071221;28;19928;-66
2023/05/18 15:31:11;;;;;;;;;;;;;;;;;;5070822;28;19928;-65
2023/05/18 15:33:41;;;;;;;;;;;;;;;;;;5069276;28;20266;-65
2023/05/18 15:36:07;;;;;;;;;;;;;;;;;;5061428;28;19920;-66
2023/05/18 15:38:32;;;;;;;;;;;;;;;;;;5073493;28;19932;-65
2023/05/18 15:40:58;;;;;;;;;;;;;;;;;;5072069;28;20508;-65
2023/05/18 15:43:25;;;;;;;;;;;;;;;;;;5072003;28;19924;-65
2023/05/18 15:45:50;;;;;;;;;;;;;;;;;;5071689;28;19973;-66
2023/05/18 15:48:16;;;;;;;;;;;;;;;;;;5072571;28;20007;-60
2023/05/18 15:50:42;;;;;;;;;;;;;;;;;;5067591;28;20292;-61
2023/05/18 15:53:08;;;;;;;;;;;;;;;;;;5069841;28;19928;-60
2023/05/18 15:55:34;;;;;;;;;;;;;;;;;;5062812;28;19927;-61
2023/05/18 15:58:01;;;;;;;;;;;;;;;;;;5063737;28;20286;-60
2023/05/18 16:00:28;;;;;;;;;;;;;;;;;;5071229;28;20003;-61
2023/05/18 16:02:54;;;;;;;;;;;;;;;;;;5070674;28;19927;-61
2023/05/18 16:05:20;;;;;;;;;;;;;;;;;;5074749;28;20488;-60
2023/05/18 16:07:46;;;;;;;;;;;;;;;;;;5078017;28;19932;-61
2023/05/18 16:10:13;;;;;;;;;;;;;;;;;;5071418;28;19927;-61
2023/05/18 16:12:38;;;;;;;;;;;;;;;;;;5069857;28;20361;-61
2023/05/18 16:15:05;;;;;;;;;;;;;;;;;;5065429;28;19931;-61
2023/05/18 16:17:30;;;;;;;;;;;;;;;;;;5052664;28;19920;-61
2023/05/18 16:19:56;;;;;;;;;;;;;;;;;;5083889;28;19932;-61
2023/05/18 16:22:22;;;;;;;;;;;;;;;;;;5086914;28;20293;-63
2023/05/18 16:24:48;;;;;;;;;;;;;;;;;;5076589;28;19920;-61
2023/05/18 16:27:14;;;;;;;;;;;;;;;;;;5066877;28;19962;-61
2023/05/18 16:29:41;;;;;;;;;;;;;;;;;;5071595;28;19929;-61
2023/05/18 16:32:07;;;;;;;;;;;;;;;;;;5069098;28;20407;-61
2023/05/18 16:34:33;;;;;;;;;;;;;;;;;;5071381;28;19924;-60
2023/05/18 16:36:59;;;;;;;;;;;;;;;;;;5070442;28;20363;-61